sensor_id;sensor_type;location;lat;lon;timestamp;temperature;humidity
33927;DHT22;20485;50.992;5.550;2023-06-10T00:00:46;19.40;99.90
33927;DHT22;20485;50.992;5.550;2023-06-10T00:03:19;19.40;99.90
33927;DHT22;20485;50.992;5.550;2023-06-10T00:05:52;19.40;99.90
33927;DHT22;20485;50.992;5.550;2023-06-10T00:08:19;19.40;99.90
33927;DHT22;20485;50.992;5.550;2023-06-10T00:10:49;19.40;99.90
33927;DHT22;20485;50.992;5.550;2023-06-10T00:13:22;19.30;99.90
33927;DHT22;20485;50.992;5.550;2023-06-10T00:15:52;19.20;99.90
33927;DHT22;20485;50.992;5.550;2023-06-10T00:18:22;19.10;99.90
33927;DHT22;20485;50.992;5.550;2023-06-10T00:20:52;19.00;99.90
33927;DHT22;20485;50.992;5.550;2023-06-10T00:23:24;18.90;99.90
33927;DHT22;20485;50.992;5.550;2023-06-10T00:25:51;18.80;99.90
33927;DHT22;20485;50.992;5.550;2023-06-10T00:28:18;18.80;99.90
33927;DHT22;20485;50.992;5.550;2023-06-10T00:30:45;19.00;99.90
33927;DHT22;20485;50.992;5.550;2023-06-10T00:33:15;18.80;99.90
33927;DHT22;20485;50.992;5.550;2023-06-10T00:35:47;18.80;99.90
33927;DHT22;20485;50.992;5.550;2023-06-10T00:38:14;18.80;99.90
33927;DHT22;20485;50.992;5.550;2023-06-10T00:40:44;18.70;99.90
33927;DHT22;20485;50.992;5.550;2023-06-10T00:43:11;18.50;99.90
33927;DHT22;20485;50.992;5.550;2023-06-10T00:45:39;18.50;99.90
33927;DHT22;20485;50.992;5.550;2023-06-10T00:48:06;18.50;99.90
33927;DHT22;20485;50.992;5.550;2023-06-10T00:50:34;18.70;99.90
33927;DHT22;20485;50.992;5.550;2023-06-10T00:53:04;18.60;99.90
33927;DHT22;20485;50.992;5.550;2023-06-10T00:55:31;18.50;99.90
33927;DHT22;20485;50.992;5.550;2023-06-10T00:57:59;18.10;99.90
33927;DHT22;20485;50.992;5.550;2023-06-10T01:00:29;18.60;99.90
33927;DHT22;20485;50.992;5.550;2023-06-10T01:02:55;18.10;99.90
33927;DHT22;20485;50.992;5.550;2023-06-10T01:05:23;18.50;99.90
33927;DHT22;20485;50.992;5.550;2023-06-10T01:08:10;18.50;99.90
33927;DHT22;20485;50.992;5.550;2023-06-10T01:10:49;18.50;99.90
33927;DHT22;20485;50.992;5.550;2023-06-10T01:13:16;18.50;99.90
33927;DHT22;20485;50.992;5.550;2023-06-10T01:15:44;18.60;99.90
33927;DHT22;20485;50.992;5.550;2023-06-10T01:18:16;18.60;99.90
33927;DHT22;20485;50.992;5.550;2023-06-10T01:20:46;18.60;99.90
33927;DHT22;20485;50.992;5.550;2023-06-10T01:23:26;18.40;99.90
33927;DHT22;20485;50.992;5.550;2023-06-10T01:26:01;17.30;99.90
33927;DHT22;20485;50.992;5.550;2023-06-10T01:28:44;18.50;99.90
33927;DHT22;20485;50.992;5.550;2023-06-10T01:34:27;18.30;99.90
33927;DHT22;20485;50.992;5.550;2023-06-10T01:36:58;18.30;99.90
33927;DHT22;20485;50.992;5.550;2023-06-10T01:39:26;18.40;99.90
33927;DHT22;20485;50.992;5.550;2023-06-10T01:41:54;18.30;99.90
33927;DHT22;20485;50.992;5.550;2023-06-10T01:44:26;18.30;99.90
33927;DHT22;20485;50.992;5.550;2023-06-10T01:46:52;18.20;99.90
33927;DHT22;20485;50.992;5.550;2023-06-10T01:49:17;18.20;99.90
33927;DHT22;20485;50.992;5.550;2023-06-10T01:51:43;18.10;99.90
33927;DHT22;20485;50.992;5.550;2023-06-10T01:54:09;18.20;99.90
33927;DHT22;20485;50.992;5.550;2023-06-10T01:56:34;18.20;99.90
33927;DHT22;20485;50.992;5.550;2023-06-10T01:59:00;18.20;99.90
33927;DHT22;20485;50.992;5.550;2023-06-10T02:01:26;18.20;99.90
33927;DHT22;20485;50.992;5.550;2023-06-10T02:03:52;18.30;99.90
33927;DHT22;20485;50.992;5.550;2023-06-10T02:06:17;18.30;99.90
33927;DHT22;20485;50.992;5.550;2023-06-10T02:08:43;18.20;99.90
33927;DHT22;20485;50.992;5.550;2023-06-10T02:11:09;18.20;99.90
33927;DHT22;20485;50.992;5.550;2023-06-10T02:13:34;18.20;99.90
33927;DHT22;20485;50.992;5.550;2023-06-10T02:16:00;18.10;99.90
33927;DHT22;20485;50.992;5.550;2023-06-10T02:18:27;18.10;99.90
33927;DHT22;20485;50.992;5.550;2023-06-10T02:20:53;18.10;99.90
33927;DHT22;20485;50.992;5.550;2023-06-10T02:23:19;18.20;99.90
33927;DHT22;20485;50.992;5.550;2023-06-10T02:25:44;18.20;99.90
33927;DHT22;20485;50.992;5.550;2023-06-10T02:28:10;18.10;99.90
33927;DHT22;20485;50.992;5.550;2023-06-10T02:30:40;18.00;99.90
33927;DHT22;20485;50.992;5.550;2023-06-10T02:33:06;18.00;99.90
33927;DHT22;20485;50.992;5.550;2023-06-10T02:35:36;18.00;99.90
33927;DHT22;20485;50.992;5.550;2023-06-10T02:38:02;18.00;99.90
33927;DHT22;20485;50.992;5.550;2023-06-10T02:40:27;17.90;99.90
33927;DHT22;20485;50.992;5.550;2023-06-10T02:42:53;18.00;99.90
33927;DHT22;20485;50.992;5.550;2023-06-10T02:45:19;17.90;99.90
33927;DHT22;20485;50.992;5.550;2023-06-10T02:47:44;17.90;99.90
33927;DHT22;20485;50.992;5.550;2023-06-10T02:50:10;17.80;99.90
33927;DHT22;20485;50.992;5.550;2023-06-10T02:52:36;17.80;99.90
33927;DHT22;20485;50.992;5.550;2023-06-10T02:55:02;17.80;99.90
33927;DHT22;20485;50.992;5.550;2023-06-10T02:57:27;17.70;99.90
33927;DHT22;20485;50.992;5.550;2023-06-10T02:59:53;17.60;99.90
33927;DHT22;20485;50.992;5.550;2023-06-10T03:02:19;17.50;99.90
33927;DHT22;20485;50.992;5.550;2023-06-10T03:04:45;17.50;99.90
33927;DHT22;20485;50.992;5.550;2023-06-10T03:07:10;17.50;99.90
33927;DHT22;20485;50.992;5.550;2023-06-10T03:09:36;17.50;99.90
33927;DHT22;20485;50.992;5.550;2023-06-10T03:12:02;17.50;99.90
33927;DHT22;20485;50.992;5.550;2023-06-10T03:14:28;17.50;99.90
33927;DHT22;20485;50.992;5.550;2023-06-10T03:16:54;17.60;99.90
33927;DHT22;20485;50.992;5.550;2023-06-10T03:19:20;17.60;99.90
33927;DHT22;20485;50.992;5.550;2023-06-10T03:22:07;17.50;99.90
33927;DHT22;20485;50.992;5.550;2023-06-10T03:24:33;17.40;99.90
33927;DHT22;20485;50.992;5.550;2023-06-10T03:26:58;17.40;99.90
33927;DHT22;20485;50.992;5.550;2023-06-10T03:29:24;17.40;99.90
33927;DHT22;20485;50.992;5.550;2023-06-10T03:31:50;17.40;99.90
33927;DHT22;20485;50.992;5.550;2023-06-10T03:34:15;17.30;99.90
33927;DHT22;20485;50.992;5.550;2023-06-10T03:36:41;17.30;99.90
33927;DHT22;20485;50.992;5.550;2023-06-10T03:39:08;17.30;99.90
33927;DHT22;20485;50.992;5.550;2023-06-10T03:41:34;17.30;99.90
33927;DHT22;20485;50.992;5.550;2023-06-10T03:44:00;17.30;99.90
33927;DHT22;20485;50.992;5.550;2023-06-10T03:46:26;17.20;99.90
33927;DHT22;20485;50.992;5.550;2023-06-10T03:48:51;17.20;99.90
33927;DHT22;20485;50.992;5.550;2023-06-10T03:51:17;17.10;99.90
33927;DHT22;20485;50.992;5.550;2023-06-10T03:53:43;17.10;99.90
33927;DHT22;20485;50.992;5.550;2023-06-10T03:56:08;17.10;99.90
33927;DHT22;20485;50.992;5.550;2023-06-10T03:58:34;17.00;99.90
33927;DHT22;20485;50.992;5.550;2023-06-10T04:01:01;17.10;99.90
33927;DHT22;20485;50.992;5.550;2023-06-10T04:03:26;17.10;99.90
33927;DHT22;20485;50.992;5.550;2023-06-10T04:05:52;17.10;99.90
33927;DHT22;20485;50.992;5.550;2023-06-10T04:08:18;17.10;99.90
33927;DHT22;20485;50.992;5.550;2023-06-10T04:10:43;17.00;99.90
33927;DHT22;20485;50.992;5.550;2023-06-10T04:13:09;17.10;99.90
33927;DHT22;20485;50.992;5.550;2023-06-10T04:15:35;17.10;99.90
33927;DHT22;20485;50.992;5.550;2023-06-10T04:18:01;17.10;99.90
33927;DHT22;20485;50.992;5.550;2023-06-10T04:20:27;17.20;99.90
33927;DHT22;20485;50.992;5.550;2023-06-10T04:22:53;17.20;99.90
33927;DHT22;20485;50.992;5.550;2023-06-10T04:25:19;17.20;99.90
33927;DHT22;20485;50.992;5.550;2023-06-10T04:27:45;17.30;99.90
33927;DHT22;20485;50.992;5.550;2023-06-10T04:30:11;17.40;99.90
33927;DHT22;20485;50.992;5.550;2023-06-10T04:32:37;17.50;99.90
33927;DHT22;20485;50.992;5.550;2023-06-10T04:35:03;17.60;99.90
33927;DHT22;20485;50.992;5.550;2023-06-10T04:37:29;17.80;99.90
33927;DHT22;20485;50.992;5.550;2023-06-10T04:39:54;18.00;99.90
33927;DHT22;20485;50.992;5.550;2023-06-10T04:42:20;18.00;99.90
33927;DHT22;20485;50.992;5.550;2023-06-10T04:44:45;18.00;99.90
33927;DHT22;20485;50.992;5.550;2023-06-10T04:47:11;18.00;99.90
33927;DHT22;20485;50.992;5.550;2023-06-10T04:49:37;18.20;99.90
33927;DHT22;20485;50.992;5.550;2023-06-10T04:52:03;18.20;99.90
33927;DHT22;20485;50.992;5.550;2023-06-10T04:54:30;18.30;99.90
33927;DHT22;20485;50.992;5.550;2023-06-10T04:56:55;18.30;99.90
33927;DHT22;20485;50.992;5.550;2023-06-10T04:59:21;18.40;99.90
33927;DHT22;20485;50.992;5.550;2023-06-10T05:01:47;18.60;99.90
33927;DHT22;20485;50.992;5.550;2023-06-10T05:04:12;18.70;99.90
33927;DHT22;20485;50.992;5.550;2023-06-10T05:06:38;18.80;99.90
33927;DHT22;20485;50.992;5.550;2023-06-10T05:09:03;18.80;99.90
33927;DHT22;20485;50.992;5.550;2023-06-10T05:11:29;19.00;99.90
33927;DHT22;20485;50.992;5.550;2023-06-10T05:13:55;19.10;99.90
33927;DHT22;20485;50.992;5.550;2023-06-10T05:16:20;19.10;99.90
33927;DHT22;20485;50.992;5.550;2023-06-10T05:18:46;19.10;99.90
33927;DHT22;20485;50.992;5.550;2023-06-10T05:21:12;19.20;99.90
33927;DHT22;20485;50.992;5.550;2023-06-10T05:23:38;19.20;99.90
33927;DHT22;20485;50.992;5.550;2023-06-10T05:26:03;19.30;99.90
33927;DHT22;20485;50.992;5.550;2023-06-10T05:28:29;19.30;99.90
33927;DHT22;20485;50.992;5.550;2023-06-10T05:30:54;19.30;99.90
33927;DHT22;20485;50.992;5.550;2023-06-10T05:33:20;19.40;99.90
33927;DHT22;20485;50.992;5.550;2023-06-10T05:35:46;19.40;99.90
33927;DHT22;20485;50.992;5.550;2023-06-10T05:38:11;19.50;99.90
33927;DHT22;20485;50.992;5.550;2023-06-10T05:40:37;19.50;99.90
33927;DHT22;20485;50.992;5.550;2023-06-10T05:43:03;19.60;99.90
33927;DHT22;20485;50.992;5.550;2023-06-10T05:45:28;19.60;99.90
33927;DHT22;20485;50.992;5.550;2023-06-10T05:47:54;19.70;99.90
33927;DHT22;20485;50.992;5.550;2023-06-10T05:50:20;19.80;99.90
33927;DHT22;20485;50.992;5.550;2023-06-10T05:52:45;19.80;99.90
33927;DHT22;20485;50.992;5.550;2023-06-10T05:55:11;19.90;99.90
33927;DHT22;20485;50.992;5.550;2023-06-10T05:57:37;19.90;99.90
33927;DHT22;20485;50.992;5.550;2023-06-10T06:00:03;20.00;99.90
33927;DHT22;20485;50.992;5.550;2023-06-10T06:02:29;20.10;99.90
33927;DHT22;20485;50.992;5.550;2023-06-10T06:04:55;20.20;99.90
33927;DHT22;20485;50.992;5.550;2023-06-10T06:07:21;20.30;99.90
33927;DHT22;20485;50.992;5.550;2023-06-10T06:09:47;20.30;99.90
33927;DHT22;20485;50.992;5.550;2023-06-10T06:12:13;20.20;99.90
33927;DHT22;20485;50.992;5.550;2023-06-10T06:14:38;20.30;99.90
33927;DHT22;20485;50.992;5.550;2023-06-10T06:17:05;20.30;99.90
33927;DHT22;20485;50.992;5.550;2023-06-10T06:19:31;20.40;99.90
33927;DHT22;20485;50.992;5.550;2023-06-10T06:21:57;20.50;99.90
33927;DHT22;20485;50.992;5.550;2023-06-10T06:24:29;20.60;99.90
33927;DHT22;20485;50.992;5.550;2023-06-10T06:26:55;20.60;99.90
33927;DHT22;20485;50.992;5.550;2023-06-10T06:29:20;20.70;99.90
33927;DHT22;20485;50.992;5.550;2023-06-10T06:31:46;20.80;99.90
33927;DHT22;20485;50.992;5.550;2023-06-10T06:34:12;20.80;99.90
33927;DHT22;20485;50.992;5.550;2023-06-10T06:36:37;20.90;99.90
33927;DHT22;20485;50.992;5.550;2023-06-10T06:39:03;21.00;99.90
33927;DHT22;20485;50.992;5.550;2023-06-10T06:41:28;20.90;99.90
33927;DHT22;20485;50.992;5.550;2023-06-10T06:43:55;21.00;99.90
33927;DHT22;20485;50.992;5.550;2023-06-10T06:46:20;21.00;99.90
33927;DHT22;20485;50.992;5.550;2023-06-10T06:48:47;21.10;99.90
33927;DHT22;20485;50.992;5.550;2023-06-10T06:51:13;21.20;99.90
33927;DHT22;20485;50.992;5.550;2023-06-10T06:53:39;21.20;99.90
33927;DHT22;20485;50.992;5.550;2023-06-10T06:56:10;21.30;99.90
33927;DHT22;20485;50.992;5.550;2023-06-10T06:58:36;21.40;99.90
33927;DHT22;20485;50.992;5.550;2023-06-10T07:01:01;21.50;99.90
33927;DHT22;20485;50.992;5.550;2023-06-10T07:03:27;21.50;99.90
33927;DHT22;20485;50.992;5.550;2023-06-10T07:05:53;21.70;99.90
33927;DHT22;20485;50.992;5.550;2023-06-10T07:08:18;21.80;99.90
33927;DHT22;20485;50.992;5.550;2023-06-10T07:10:44;21.80;99.90
33927;DHT22;20485;50.992;5.550;2023-06-10T07:13:10;21.90;99.90
33927;DHT22;20485;50.992;5.550;2023-06-10T07:15:35;21.90;99.90
33927;DHT22;20485;50.992;5.550;2023-06-10T07:18:01;22.00;99.90
33927;DHT22;20485;50.992;5.550;2023-06-10T07:20:27;22.00;99.90
33927;DHT22;20485;50.992;5.550;2023-06-10T07:22:52;22.10;99.90
33927;DHT22;20485;50.992;5.550;2023-06-10T07:25:19;22.20;99.90
33927;DHT22;20485;50.992;5.550;2023-06-10T07:27:44;22.30;99.90
33927;DHT22;20485;50.992;5.550;2023-06-10T07:30:10;22.30;99.90
33927;DHT22;20485;50.992;5.550;2023-06-10T07:32:36;22.30;99.90
33927;DHT22;20485;50.992;5.550;2023-06-10T07:35:02;22.40;99.90
33927;DHT22;20485;50.992;5.550;2023-06-10T07:37:28;22.40;99.90
33927;DHT22;20485;50.992;5.550;2023-06-10T07:39:53;22.60;99.90
33927;DHT22;20485;50.992;5.550;2023-06-10T07:42:19;22.60;99.90
33927;DHT22;20485;50.992;5.550;2023-06-10T07:44:45;22.70;99.90
33927;DHT22;20485;50.992;5.550;2023-06-10T07:47:10;22.70;99.90
33927;DHT22;20485;50.992;5.550;2023-06-10T07:49:36;22.80;99.90
33927;DHT22;20485;50.992;5.550;2023-06-10T07:52:02;22.90;99.90
33927;DHT22;20485;50.992;5.550;2023-06-10T07:54:28;23.00;99.90
33927;DHT22;20485;50.992;5.550;2023-06-10T07:56:53;22.80;99.90
33927;DHT22;20485;50.992;5.550;2023-06-10T07:59:19;23.00;99.90
33927;DHT22;20485;50.992;5.550;2023-06-10T08:01:45;23.10;99.90
33927;DHT22;20485;50.992;5.550;2023-06-10T08:04:11;23.20;99.90
33927;DHT22;20485;50.992;5.550;2023-06-10T08:06:36;23.30;99.90
33927;DHT22;20485;50.992;5.550;2023-06-10T08:09:03;23.30;99.90
33927;DHT22;20485;50.992;5.550;2023-06-10T08:11:29;23.50;99.90
33927;DHT22;20485;50.992;5.550;2023-06-10T08:13:55;23.50;99.90
33927;DHT22;20485;50.992;5.550;2023-06-10T08:16:21;23.60;99.90
33927;DHT22;20485;50.992;5.550;2023-06-10T08:18:46;23.50;99.90
33927;DHT22;20485;50.992;5.550;2023-06-10T08:21:12;23.60;99.90
33927;DHT22;20485;50.992;5.550;2023-06-10T08:23:38;23.60;99.90
33927;DHT22;20485;50.992;5.550;2023-06-10T08:26:04;23.70;99.90
33927;DHT22;20485;50.992;5.550;2023-06-10T08:28:30;23.80;99.90
33927;DHT22;20485;50.992;5.550;2023-06-10T08:30:55;23.80;99.90
33927;DHT22;20485;50.992;5.550;2023-06-10T08:33:21;23.80;99.90
33927;DHT22;20485;50.992;5.550;2023-06-10T08:35:47;23.90;99.90
33927;DHT22;20485;50.992;5.550;2023-06-10T08:38:12;23.90;99.90
33927;DHT22;20485;50.992;5.550;2023-06-10T08:43:06;24.10;99.90
33927;DHT22;20485;50.992;5.550;2023-06-10T08:45:35;24.10;99.90
33927;DHT22;20485;50.992;5.550;2023-06-10T08:48:05;24.20;99.90
33927;DHT22;20485;50.992;5.550;2023-06-10T08:50:37;24.20;99.90
33927;DHT22;20485;50.992;5.550;2023-06-10T08:53:07;24.30;99.90
33927;DHT22;20485;50.992;5.550;2023-06-10T08:55:37;24.40;99.90
33927;DHT22;20485;50.992;5.550;2023-06-10T08:58:03;24.40;99.90
33927;DHT22;20485;50.992;5.550;2023-06-10T09:00:30;24.50;99.90
33927;DHT22;20485;50.992;5.550;2023-06-10T09:02:57;24.60;99.90
33927;DHT22;20485;50.992;5.550;2023-06-10T09:05:24;24.60;99.90
33927;DHT22;20485;50.992;5.550;2023-06-10T09:07:52;24.60;99.90
33927;DHT22;20485;50.992;5.550;2023-06-10T09:10:18;24.80;99.90
33927;DHT22;20485;50.992;5.550;2023-06-10T09:12:47;24.80;99.90
33927;DHT22;20485;50.992;5.550;2023-06-10T09:15:17;24.80;99.90
33927;DHT22;20485;50.992;5.550;2023-06-10T09:17:44;24.90;99.50
33927;DHT22;20485;50.992;5.550;2023-06-10T09:20:10;25.00;99.90
33927;DHT22;20485;50.992;5.550;2023-06-10T09:22:36;25.10;99.90
33927;DHT22;20485;50.992;5.550;2023-06-10T09:25:07;25.20;99.90
33927;DHT22;20485;50.992;5.550;2023-06-10T09:27:51;25.30;99.90
33927;DHT22;20485;50.992;5.550;2023-06-10T09:30:27;25.30;99.80
33927;DHT22;20485;50.992;5.550;2023-06-10T09:32:54;25.30;99.90
33927;DHT22;20485;50.992;5.550;2023-06-10T09:35:24;25.40;99.90
33927;DHT22;20485;50.992;5.550;2023-06-10T09:37:52;25.60;99.90
33927;DHT22;20485;50.992;5.550;2023-06-10T09:40:18;25.50;98.40
33927;DHT22;20485;50.992;5.550;2023-06-10T09:42:43;25.80;98.90
33927;DHT22;20485;50.992;5.550;2023-06-10T09:45:09;25.70;97.50
33927;DHT22;20485;50.992;5.550;2023-06-10T09:47:35;25.80;98.60
33927;DHT22;20485;50.992;5.550;2023-06-10T09:50:00;25.80;97.20
33927;DHT22;20485;50.992;5.550;2023-06-10T09:52:39;25.80;97.20
33927;DHT22;20485;50.992;5.550;2023-06-10T09:55:08;25.70;96.90
33927;DHT22;20485;50.992;5.550;2023-06-10T09:57:34;25.70;97.60
33927;DHT22;20485;50.992;5.550;2023-06-10T10:00:05;25.80;97.60
33927;DHT22;20485;50.992;5.550;2023-06-10T10:02:31;26.00;96.80
33927;DHT22;20485;50.992;5.550;2023-06-10T10:05:03;26.20;97.80
33927;DHT22;20485;50.992;5.550;2023-06-10T10:07:30;26.30;96.70
33927;DHT22;20485;50.992;5.550;2023-06-10T10:09:56;26.20;96.00
33927;DHT22;20485;50.992;5.550;2023-06-10T10:12:22;26.30;98.20
33927;DHT22;20485;50.992;5.550;2023-06-10T10:14:49;26.30;97.00
33927;DHT22;20485;50.992;5.550;2023-06-10T10:17:16;26.30;96.40
33927;DHT22;20485;50.992;5.550;2023-06-10T10:19:46;26.40;96.10
33927;DHT22;20485;50.992;5.550;2023-06-10T10:22:26;26.50;95.70
33927;DHT22;20485;50.992;5.550;2023-06-10T10:25:00;26.60;96.50
33927;DHT22;20485;50.992;5.550;2023-06-10T10:27:30;26.70;96.40
33927;DHT22;20485;50.992;5.550;2023-06-10T10:29:58;26.70;94.20
33927;DHT22;20485;50.992;5.550;2023-06-10T10:32:54;26.70;94.10
33927;DHT22;20485;50.992;5.550;2023-06-10T10:35:23;26.80;96.10
33927;DHT22;20485;50.992;5.550;2023-06-10T10:37:54;26.70;94.00
33927;DHT22;20485;50.992;5.550;2023-06-10T10:40:26;26.80;96.70
33927;DHT22;20485;50.992;5.550;2023-06-10T10:42:56;26.70;94.30
33927;DHT22;20485;50.992;5.550;2023-06-10T10:45:22;26.60;92.30
33927;DHT22;20485;50.992;5.550;2023-06-10T10:47:52;26.80;92.90
33927;DHT22;20485;50.992;5.550;2023-06-10T10:50:19;27.00;93.40
33927;DHT22;20485;50.992;5.550;2023-06-10T10:52:55;26.90;92.30
33927;DHT22;20485;50.992;5.550;2023-06-10T10:55:24;26.90;92.20
33927;DHT22;20485;50.992;5.550;2023-06-10T10:57:59;27.10;93.50
33927;DHT22;20485;50.992;5.550;2023-06-10T11:00:30;27.00;92.80
33927;DHT22;20485;50.992;5.550;2023-06-10T11:05:43;27.30;91.40
33927;DHT22;20485;50.992;5.550;2023-06-10T11:08:13;27.20;90.80
33927;DHT22;20485;50.992;5.550;2023-06-10T11:10:41;27.20;91.10
33927;DHT22;20485;50.992;5.550;2023-06-10T11:13:14;27.20;91.10
33927;DHT22;20485;50.992;5.550;2023-06-10T11:15:44;27.30;91.10
33927;DHT22;20485;50.992;5.550;2023-06-10T11:18:29;27.40;91.80
33927;DHT22;20485;50.992;5.550;2023-06-10T11:21:04;27.60;90.00
33927;DHT22;20485;50.992;5.550;2023-06-10T11:23:32;27.80;92.60
33927;DHT22;20485;50.992;5.550;2023-06-10T11:28:37;27.70;86.10
33927;DHT22;20485;50.992;5.550;2023-06-10T11:31:03;27.60;87.90
33927;DHT22;20485;50.992;5.550;2023-06-10T11:33:29;27.80;90.20
33927;DHT22;20485;50.992;5.550;2023-06-10T11:35:55;27.80;87.30
33927;DHT22;20485;50.992;5.550;2023-06-10T11:38:21;28.00;86.70
33927;DHT22;20485;50.992;5.550;2023-06-10T11:40:51;28.00;85.50
33927;DHT22;20485;50.992;5.550;2023-06-10T11:43:20;28.00;85.70
33927;DHT22;20485;50.992;5.550;2023-06-10T11:45:46;28.20;91.00
33927;DHT22;20485;50.992;5.550;2023-06-10T11:48:12;28.30;86.30
33927;DHT22;20485;50.992;5.550;2023-06-10T11:50:38;28.20;85.00
33927;DHT22;20485;50.992;5.550;2023-06-10T11:53:08;28.40;86.00
33927;DHT22;20485;50.992;5.550;2023-06-10T11:55:44;28.40;83.40
33927;DHT22;20485;50.992;5.550;2023-06-10T11:58:15;28.50;80.90
33927;DHT22;20485;50.992;5.550;2023-06-10T12:03:10;28.60;84.00
33927;DHT22;20485;50.992;5.550;2023-06-10T12:05:36;28.80;83.10
33927;DHT22;20485;50.992;5.550;2023-06-10T12:08:11;28.70;81.00
33927;DHT22;20485;50.992;5.550;2023-06-10T12:10:44;28.30;80.20
33927;DHT22;20485;50.992;5.550;2023-06-10T12:13:10;28.20;78.00
33927;DHT22;20485;50.992;5.550;2023-06-10T12:15:35;28.30;81.10
33927;DHT22;20485;50.992;5.550;2023-06-10T12:18:02;28.30;79.90
33927;DHT22;20485;50.992;5.550;2023-06-10T12:20:30;28.10;77.70
33927;DHT22;20485;50.992;5.550;2023-06-10T12:22:57;28.40;81.60
33927;DHT22;20485;50.992;5.550;2023-06-10T12:25:27;28.50;79.30
33927;DHT22;20485;50.992;5.550;2023-06-10T12:27:55;28.20;81.10
33927;DHT22;20485;50.992;5.550;2023-06-10T12:30:26;28.20;77.90
33927;DHT22;20485;50.992;5.550;2023-06-10T12:32:53;28.40;77.60
33927;DHT22;20485;50.992;5.550;2023-06-10T12:35:21;28.60;78.10
33927;DHT22;20485;50.992;5.550;2023-06-10T12:38:02;28.60;76.20
33927;DHT22;20485;50.992;5.550;2023-06-10T12:40:41;28.90;78.50
33927;DHT22;20485;50.992;5.550;2023-06-10T12:43:07;28.90;76.10
33927;DHT22;20485;50.992;5.550;2023-06-10T12:45:35;29.10;76.10
33927;DHT22;20485;50.992;5.550;2023-06-10T12:48:21;29.10;74.30
33927;DHT22;20485;50.992;5.550;2023-06-10T12:50:52;29.20;75.20
33927;DHT22;20485;50.992;5.550;2023-06-10T12:53:19;29.10;73.70
33927;DHT22;20485;50.992;5.550;2023-06-10T12:55:45;29.20;73.00
33927;DHT22;20485;50.992;5.550;2023-06-10T12:58:11;29.20;72.50
33927;DHT22;20485;50.992;5.550;2023-06-10T13:00:38;29.20;70.70
33927;DHT22;20485;50.992;5.550;2023-06-10T13:03:04;29.20;71.00
33927;DHT22;20485;50.992;5.550;2023-06-10T13:05:34;29.30;69.80
33927;DHT22;20485;50.992;5.550;2023-06-10T13:08:02;29.40;72.10
33927;DHT22;20485;50.992;5.550;2023-06-10T13:10:28;29.50;71.20
33927;DHT22;20485;50.992;5.550;2023-06-10T13:12:54;29.70;73.80
33927;DHT22;20485;50.992;5.550;2023-06-10T13:15:20;29.90;74.10
33927;DHT22;20485;50.992;5.550;2023-06-10T13:17:46;30.10;69.30
33927;DHT22;20485;50.992;5.550;2023-06-10T13:20:15;30.20;70.30
33927;DHT22;20485;50.992;5.550;2023-06-10T13:22:42;30.00;68.80
33927;DHT22;20485;50.992;5.550;2023-06-10T13:25:08;29.70;70.50
33927;DHT22;20485;50.992;5.550;2023-06-10T13:27:37;30.00;72.20
33927;DHT22;20485;50.992;5.550;2023-06-10T13:30:08;30.20;70.70
33927;DHT22;20485;50.992;5.550;2023-06-10T13:32:35;30.30;71.70
33927;DHT22;20485;50.992;5.550;2023-06-10T13:35:01;30.50;68.20
33927;DHT22;20485;50.992;5.550;2023-06-10T13:37:27;30.50;69.50
33927;DHT22;20485;50.992;5.550;2023-06-10T13:39:52;30.70;69.90
33927;DHT22;20485;50.992;5.550;2023-06-10T13:42:19;30.30;69.30
33927;DHT22;20485;50.992;5.550;2023-06-10T13:44:45;30.30;69.60
33927;DHT22;20485;50.992;5.550;2023-06-10T13:47:11;30.30;73.30
33927;DHT22;20485;50.992;5.550;2023-06-10T13:49:36;30.10;70.30
33927;DHT22;20485;50.992;5.550;2023-06-10T13:52:03;29.80;70.00
33927;DHT22;20485;50.992;5.550;2023-06-10T13:54:28;29.40;73.10
33927;DHT22;20485;50.992;5.550;2023-06-10T13:56:54;29.70;73.30
33927;DHT22;20485;50.992;5.550;2023-06-10T13:59:20;30.40;74.40
33927;DHT22;20485;50.992;5.550;2023-06-10T14:01:46;30.70;71.70
33927;DHT22;20485;50.992;5.550;2023-06-10T14:04:12;30.90;72.10
33927;DHT22;20485;50.992;5.550;2023-06-10T14:06:38;30.10;68.00
33927;DHT22;20485;50.992;5.550;2023-06-10T14:09:04;29.80;69.20
33927;DHT22;20485;50.992;5.550;2023-06-10T14:11:30;30.10;69.40
33927;DHT22;20485;50.992;5.550;2023-06-10T14:13:56;29.90;69.30
33927;DHT22;20485;50.992;5.550;2023-06-10T14:16:23;30.20;71.90
33927;DHT22;20485;50.992;5.550;2023-06-10T14:18:49;30.60;70.40
33927;DHT22;20485;50.992;5.550;2023-06-10T14:21:16;30.60;70.60
33927;DHT22;20485;50.992;5.550;2023-06-10T14:23:42;30.60;72.20
33927;DHT22;20485;50.992;5.550;2023-06-10T14:26:09;31.00;70.90
33927;DHT22;20485;50.992;5.550;2023-06-10T14:28:35;31.30;72.40
33927;DHT22;20485;50.992;5.550;2023-06-10T14:31:01;31.60;69.30
33927;DHT22;20485;50.992;5.550;2023-06-10T14:33:26;31.70;70.60
33927;DHT22;20485;50.992;5.550;2023-06-10T14:35:52;31.20;71.50
33927;DHT22;20485;50.992;5.550;2023-06-10T14:38:18;31.20;71.30
33927;DHT22;20485;50.992;5.550;2023-06-10T14:40:46;31.00;69.30
33927;DHT22;20485;50.992;5.550;2023-06-10T14:43:11;30.70;68.90
33927;DHT22;20485;50.992;5.550;2023-06-10T14:45:41;30.80;73.30
33927;DHT22;20485;50.992;5.550;2023-06-10T14:48:07;31.10;70.60
33927;DHT22;20485;50.992;5.550;2023-06-10T14:50:37;30.70;66.80
33927;DHT22;20485;50.992;5.550;2023-06-10T14:53:03;30.40;67.20
33927;DHT22;20485;50.992;5.550;2023-06-10T14:55:28;30.90;71.50
33927;DHT22;20485;50.992;5.550;2023-06-10T14:57:54;31.60;67.70
33927;DHT22;20485;50.992;5.550;2023-06-10T15:00:21;32.30;67.80
33927;DHT22;20485;50.992;5.550;2023-06-10T15:02:49;32.70;64.40
33927;DHT22;20485;50.992;5.550;2023-06-10T15:05:16;32.00;62.40
33927;DHT22;20485;50.992;5.550;2023-06-10T15:07:42;32.40;63.00
33927;DHT22;20485;50.992;5.550;2023-06-10T15:10:09;32.70;61.00
33927;DHT22;20485;50.992;5.550;2023-06-10T15:12:35;33.40;63.70
33927;DHT22;20485;50.992;5.550;2023-06-10T15:15:01;34.40;60.90
33927;DHT22;20485;50.992;5.550;2023-06-10T15:17:27;34.00;63.90
33927;DHT22;20485;50.992;5.550;2023-06-10T15:19:53;34.80;62.50
33927;DHT22;20485;50.992;5.550;2023-06-10T15:22:19;35.20;59.30
33927;DHT22;20485;50.992;5.550;2023-06-10T15:24:44;34.80;60.90
33927;DHT22;20485;50.992;5.550;2023-06-10T15:27:10;35.50;58.40
33927;DHT22;20485;50.992;5.550;2023-06-10T15:29:36;35.80;58.30
33927;DHT22;20485;50.992;5.550;2023-06-10T15:32:02;36.20;56.40
33927;DHT22;20485;50.992;5.550;2023-06-10T15:34:27;36.30;55.90
33927;DHT22;20485;50.992;5.550;2023-06-10T15:36:53;36.90;58.50
33927;DHT22;20485;50.992;5.550;2023-06-10T15:39:19;37.00;56.70
33927;DHT22;20485;50.992;5.550;2023-06-10T15:41:45;37.20;55.30
33927;DHT22;20485;50.992;5.550;2023-06-10T15:44:11;35.20;55.50